Time;durP1;ratioP1;P1;durP2;ratioP2;P2;SDS_P1;SDS_P2;PMS_P1;PMS_P2;Temp;Humidity;BMP_temperature;BMP_pressure;BME280_temperature;BME280_humidity;BME280_pressure;Samples;Min_cycle;Max_cycle;Signal;HPM_P1;HPM_P2
2023/10/29 00:00:21;;;;;;;10.20;9.47;;;12.50;99.90;;;;;;4917936;29;20213;-78
2023/10/29 00:02:48;;;;;;;10.23;9.63;;;12.50;99.90;;;;;;4907904;29;20236;-78
2023/10/29 00:05:14;;;;;;;9.97;9.37;;;12.60;99.90;;;;;;4908906;29;20745;-78
2023/10/29 00:07:43;;;;;;;9.77;9.17;;;12.50;99.90;;;;;;4913044;29;20214;-79
2023/10/29 00:10:10;;;;;;;10.07;9.37;;;12.60;99.90;;;;;;4916994;29;20278;-78
2023/10/29 00:12:36;;;;;;;9.90;9.20;;;12.50;99.90;;;;;;4910859;29;20204;-78
2023/10/29 00:15:05;;;;;;;9.93;9.20;;;12.60;99.90;;;;;;4905627;29;20240;-78
2023/10/29 00:17:32;;;;;;;9.70;9.10;;;12.60;99.90;;;;;;4907295;29;20223;-78
2023/10/29 00:19:59;;;;;;;9.70;9.10;;;12.60;99.90;;;;;;4909071;29;20204;-78
2023/10/29 00:22:26;;;;;;;9.80;9.00;;;12.50;99.90;;;;;;4905093;29;20291;-78
2023/10/29 00:24:55;;;;;;;9.30;8.77;;;12.60;99.90;;;;;;4907117;29;20240;-79
2023/10/29 00:27:21;;;;;;;10.13;9.53;;;12.50;99.90;;;;;;4907319;29;20605;-78
2023/10/29 00:29:48;;;;;;;10.30;9.60;;;12.50;99.90;;;;;;4904822;29;20210;-78
2023/10/29 00:32:18;;;;;;;9.90;9.30;;;12.60;99.90;;;;;;4905185;29;20199;-78
2023/10/29 00:34:45;;;;;;;10.17;9.57;;;12.60;99.90;;;;;;4914525;29;20338;-78
2023/10/29 00:37:12;;;;;;;9.80;9.27;;;12.70;99.90;;;;;;4907877;29;20579;-78
2023/10/29 00:39:39;;;;;;;9.70;9.10;;;12.70;99.90;;;;;;4903674;29;20214;-78
2023/10/29 00:42:10;;;;;;;9.83;9.23;;;12.60;99.90;;;;;;4906396;29;20204;-79
2023/10/29 00:44:37;;;;;;;9.87;9.27;;;12.60;99.90;;;;;;4905565;29;20588;-78
2023/10/29 00:47:04;;;;;;;9.90;9.30;;;12.60;99.90;;;;;;4903215;29;20223;-78
2023/10/29 00:49:31;;;;;;;9.67;9.07;;;12.70;99.90;;;;;;4900227;29;20204;-78
2023/10/29 00:51:58;;;;;;;10.00;9.40;;;12.70;99.90;;;;;;4904420;29;20215;-78
2023/10/29 00:54:25;;;;;;;9.87;9.27;;;12.70;99.90;;;;;;4908393;29;20224;-78
2023/10/29 00:56:53;;;;;;;9.90;9.30;;;12.70;99.90;;;;;;4910967;29;20246;-78
2023/10/29 00:59:22;;;;;;;9.80;9.20;;;12.60;99.90;;;;;;4907500;29;20278;-78
2023/10/29 01:01:49;;;;;;;9.93;9.23;;;12.60;99.90;;;;;;4913233;29;20252;-78
2023/10/29 01:04:16;;;;;;;10.10;9.30;;;12.60;99.90;;;;;;4905856;29;20240;-78
2023/10/29 01:06:44;;;;;;;10.07;9.43;;;12.60;99.90;;;;;;4903625;29;20204;-78
2023/10/29 01:09:13;;;;;;;9.67;9.07;;;12.60;99.90;;;;;;4905361;29;20208;-78
2023/10/29 01:11:39;;;;;;;9.83;9.23;;;12.60;99.90;;;;;;4914967;29;20199;-79
2023/10/29 01:14:06;;;;;;;9.70;9.20;;;12.60;99.90;;;;;;4910736;29;20228;-78
2023/10/29 01:16:34;;;;;;;10.10;9.40;;;12.60;99.90;;;;;;4906167;29;20243;-78
2023/10/29 01:19:01;;;;;;;10.43;9.73;;;12.70;99.90;;;;;;4909247;29;20223;-79
2023/10/29 01:21:29;;;;;;;10.03;9.43;;;12.60;99.90;;;;;;4906956;29;20292;-78
2023/10/29 01:23:56;;;;;;;10.00;9.40;;;12.70;99.90;;;;;;4903558;29;20779;-79
2023/10/29 01:26:23;;;;;;;9.77;9.17;;;12.70;99.90;;;;;;4902680;29;20703;-78
2023/10/29 01:28:49;;;;;;;10.10;9.50;;;12.70;99.90;;;;;;4904727;29;20222;-78
2023/10/29 01:31:17;;;;;;;10.17;9.57;;;12.70;99.90;;;;;;4910241;29;20299;-78
2023/10/29 01:33:45;;;;;;;9.70;9.10;;;12.70;99.90;;;;;;4903198;29;20249;-78
2023/10/29 01:36:12;;;;;;;9.70;9.10;;;12.70;99.90;;;;;;4909886;29;20199;-78
2023/10/29 01:38:39;;;;;;;9.27;8.77;;;12.70;99.90;;;;;;4906653;29;20204;-79
2023/10/29 01:41:05;;;;;;;9.40;8.80;;;12.60;99.90;;;;;;4914673;29;20200;-78
2023/10/29 01:43:32;;;;;;;9.60;8.93;;;12.60;99.90;;;;;;4900123;29;20230;-79
2023/10/29 01:45:59;;;;;;;9.57;8.97;;;12.60;99.90;;;;;;4910556;29;20258;-78
2023/10/29 01:48:27;;;;;;;9.67;9.07;;;12.60;99.90;;;;;;4905038;29;20219;-78
2023/10/29 01:50:55;;;;;;;9.97;9.30;;;12.50;99.90;;;;;;4905316;29;20241;-79
2023/10/29 01:53:22;;;;;;;9.53;8.87;;;12.50;99.90;;;;;;4906828;29;20248;-79
2023/10/29 01:55:49;;;;;;;9.73;9.17;;;12.50;99.90;;;;;;4909647;29;20210;-78
2023/10/29 01:58:16;;;;;;;9.90;9.20;;;12.40;99.90;;;;;;4907735;29;20231;-78
2023/10/29 02:00:44;;;;;;;9.53;9.03;;;12.40;99.90;;;;;;4900083;29;20204;-78
2023/10/29 02:03:11;;;;;;;9.67;9.07;;;12.30;99.90;;;;;;4904622;29;20219;-78
2023/10/29 02:05:38;;;;;;;9.47;8.97;;;12.30;99.90;;;;;;4904341;29;20292;-79
2023/10/29 02:08:06;;;;;;;9.00;8.50;;;12.30;99.90;;;;;;4899400;29;20215;-78
2023/10/29 02:10:33;;;;;;;9.23;8.63;;;12.20;99.90;;;;;;4900164;29;20207;-78
2023/10/29 02:13:00;;;;;;;9.60;9.00;;;12.10;99.90;;;;;;4898527;29;20298;-78
2023/10/29 02:15:27;;;;;;;8.97;8.43;;;12.10;99.90;;;;;;4903548;29;20245;-78
2023/10/29 02:17:54;;;;;;;9.70;9.03;;;12.10;99.90;;;;;;4901094;29;20306;-78
2023/10/29 02:20:21;;;;;;;9.40;8.80;;;12.00;99.90;;;;;;4901512;29;20206;-78
2023/10/29 02:22:49;;;;;;;9.50;8.90;;;12.00;99.90;;;;;;4914410;29;20226;-78
2023/10/29 02:25:16;;;;;;;9.50;8.87;;;12.00;99.90;;;;;;4904451;29;20215;-78
2023/10/29 02:27:43;;;;;;;9.87;9.27;;;11.90;99.90;;;;;;4906320;29;20206;-78
2023/10/29 02:30:12;;;;;;;10.20;9.40;;;11.90;99.90;;;;;;4902357;29;20202;-77
2023/10/29 02:32:39;;;;;;;9.70;9.17;;;11.90;99.90;;;;;;4904703;29;20285;-78
2023/10/29 02:35:07;;;;;;;9.93;9.20;;;12.00;99.90;;;;;;4905187;29;20697;-78
2023/10/29 02:37:34;;;;;;;10.10;9.40;;;12.00;99.90;;;;;;4909373;29;20211;-78
2023/10/29 02:40:03;;;;;;;9.50;8.90;;;11.90;99.90;;;;;;4912516;29;20221;-78
2023/10/29 02:42:29;;;;;;;9.50;8.90;;;12.00;99.90;;;;;;4911287;29;20719;-78
2023/10/29 02:44:58;;;;;;;9.40;8.80;;;12.00;99.90;;;;;;4909123;29;20221;-78
2023/10/29 02:47:25;;;;;;;9.40;8.80;;;12.00;99.90;;;;;;4905402;29;20206;-78
2023/10/29 02:49:52;;;;;;;9.50;8.90;;;12.00;99.90;;;;;;4908000;29;20262;-78
2023/10/29 02:52:19;;;;;;;9.37;8.80;;;12.00;99.90;;;;;;4907820;29;20210;-78
2023/10/29 02:54:46;;;;;;;9.70;9.10;;;11.90;99.90;;;;;;4905601;29;20210;-78
2023/10/29 02:57:15;;;;;;;9.87;9.27;;;11.90;99.90;;;;;;4911877;29;20247;-78
2023/10/29 02:59:42;;;;;;;9.40;8.87;;;11.90;99.90;;;;;;4912791;29;20198;-78
2023/10/29 03:02:09;;;;;;;10.03;9.23;;;11.90;99.90;;;;;;4905531;29;20294;-78
2023/10/29 03:04:40;;;;;;;9.80;9.20;;;11.90;99.90;;;;;;4909449;29;20647;-78
2023/10/29 03:07:12;;;;;;;9.70;9.10;;;11.90;99.90;;;;;;4908961;29;20219;-78
2023/10/29 03:09:40;;;;;;;9.20;8.70;;;11.90;99.90;;;;;;4910034;29;20688;-80
2023/10/29 03:12:07;;;;;;;9.70;9.10;;;11.90;99.90;;;;;;4903798;29;20251;-78
2023/10/29 03:14:35;;;;;;;9.10;8.50;;;11.90;99.90;;;;;;4903518;29;20727;-81
2023/10/29 03:17:03;;;;;;;9.30;8.70;;;11.90;99.90;;;;;;4917717;29;20204;-82
2023/10/29 03:19:29;;;;;;;9.47;8.87;;;11.90;99.90;;;;;;4918821;29;20428;-80
2023/10/29 03:21:56;;;;;;;9.10;8.60;;;11.80;99.90;;;;;;4911654;29;20648;-80
2023/10/29 03:24:25;;;;;;;9.23;8.70;;;11.80;99.90;;;;;;4910257;29;20228;-81
2023/10/29 03:26:52;;;;;;;8.80;8.30;;;11.80;99.90;;;;;;4917491;29;20312;-80
2023/10/29 03:29:18;;;;;;;9.17;8.67;;;11.80;99.90;;;;;;4916940;29;20259;-80
2023/10/29 03:31:47;;;;;;;8.83;8.33;;;11.70;99.90;;;;;;4918831;29;20248;-80
2023/10/29 03:34:14;;;;;;;9.27;8.77;;;11.70;99.90;;;;;;4917263;29;20228;-80
2023/10/29 03:36:41;;;;;;;9.30;8.80;;;11.70;99.90;;;;;;4916945;29;20197;-81
2023/10/29 03:39:08;;;;;;;8.90;8.40;;;11.70;99.90;;;;;;4917582;29;20217;-81
2023/10/29 03:41:35;;;;;;;9.27;8.73;;;11.70;99.90;;;;;;4918444;29;20331;-80
2023/10/29 03:44:02;;;;;;;9.67;9.07;;;11.70;99.90;;;;;;4917346;29;20288;-81
2023/10/29 03:46:29;;;;;;;9.37;8.77;;;11.80;99.90;;;;;;4918321;29;20199;-81
2023/10/29 03:48:57;;;;;;;9.50;8.80;;;11.70;99.90;;;;;;4918460;29;20283;-81
2023/10/29 03:51:25;;;;;;;9.20;8.60;;;11.60;99.90;;;;;;4908962;29;20214;-80
2023/10/29 03:53:52;;;;;;;9.20;8.70;;;11.40;99.90;;;;;;4913063;29;20233;-81
2023/10/29 03:56:19;;;;;;;9.80;9.20;;;11.30;99.90;;;;;;4913852;29;20202;-80
2023/10/29 03:58:45;;;;;;;9.60;9.00;;;11.20;99.90;;;;;;4910424;29;20666;-81
2023/10/29 04:01:13;;;;;;;10.20;9.60;;;11.10;99.90;;;;;;4917055;29;20217;-81
2023/10/29 04:03:40;;;;;;;10.07;9.47;;;11.10;99.90;;;;;;4911615;29;20316;-79
2023/10/29 04:06:10;;;;;;;9.77;9.13;;;11.00;99.90;;;;;;4900702;29;20220;-78
2023/10/29 04:08:45;;;;;;;9.70;9.10;;;11.00;99.90;;;;;;4910625;29;20200;-80
2023/10/29 04:11:14;;;;;;;9.43;8.83;;;10.90;99.90;;;;;;4905273;29;20859;-80
2023/10/29 04:13:41;;;;;;;9.87;9.27;;;10.90;99.90;;;;;;4909477;29;20224;-82
2023/10/29 04:16:08;;;;;;;9.47;8.93;;;10.80;99.90;;;;;;4910978;29;20225;-80
2023/10/29 04:18:35;;;;;;;9.73;9.13;;;10.80;99.90;;;;;;4905252;29;20644;-82
2023/10/29 04:21:03;;;;;;;9.63;8.93;;;10.80;99.90;;;;;;4902685;29;20215;-81
2023/10/29 04:23:31;;;;;;;9.77;9.07;;;10.70;99.90;;;;;;4901174;29;20228;-81
2023/10/29 04:25:58;;;;;;;9.70;9.10;;;10.60;99.90;;;;;;4900767;29;20619;-80
2023/10/29 04:28:24;;;;;;;9.80;9.20;;;10.60;99.90;;;;;;4900529;29;20201;-81
2023/10/29 04:30:53;;;;;;;10.50;9.83;;;10.60;99.90;;;;;;4906071;29;20212;-80
2023/10/29 04:33:23;;;;;;;10.30;9.60;;;10.50;99.90;;;;;;4911851;29;20234;-80
2023/10/29 04:35:50;;;;;;;10.27;9.67;;;10.50;99.90;;;;;;4908963;29;20203;-82
2023/10/29 04:38:17;;;;;;;9.87;9.27;;;10.40;99.90;;;;;;4908200;29;20688;-79
2023/10/29 04:40:45;;;;;;;9.30;8.80;;;10.50;99.90;;;;;;4918407;29;20203;-81
2023/10/29 04:43:12;;;;;;;9.40;8.90;;;10.50;99.90;;;;;;4899702;29;20225;-80
2023/10/29 04:45:39;;;;;;;9.33;8.83;;;10.60;99.90;;;;;;4907141;29;20228;-83
2023/10/29 04:48:09;;;;;;;8.97;8.47;;;10.70;99.90;;;;;;4911448;29;20207;-83
2023/10/29 04:50:36;;;;;;;9.33;8.73;;;10.80;99.90;;;;;;4900116;29;20598;-80
2023/10/29 04:53:03;;;;;;;9.30;8.70;;;10.90;99.90;;;;;;4917902;29;20255;-78
2023/10/29 04:55:30;;;;;;;8.80;8.30;;;10.90;99.90;;;;;;4925184;29;20203;-77
2023/10/29 04:57:58;;;;;;;9.10;8.60;;;11.00;99.90;;;;;;4920628;29;20195;-79
2023/10/29 05:00:25;;;;;;;9.50;9.00;;;11.10;99.90;;;;;;4931862;29;20369;-78
2023/10/29 05:02:52;;;;;;;9.17;8.67;;;11.30;99.90;;;;;;4917651;29;20618;-78
2023/10/29 05:05:18;;;;;;;9.23;8.73;;;11.40;99.90;;;;;;4919413;29;20272;-78
2023/10/29 05:07:45;;;;;;;9.00;8.50;;;11.50;99.90;;;;;;4918768;29;20256;-77
2023/10/29 05:10:14;;;;;;;8.87;8.37;;;11.60;99.90;;;;;;4913587;29;20281;-79
2023/10/29 05:12:41;;;;;;;8.60;8.10;;;11.70;99.90;;;;;;4918169;29;20210;-77
2023/10/29 05:15:12;;;;;;;9.07;8.57;;;11.80;99.90;;;;;;4917474;29;20210;-79
2023/10/29 05:17:41;;;;;;;9.10;8.60;;;11.90;99.90;;;;;;4918354;29;20243;-78
2023/10/29 05:20:10;;;;;;;9.97;9.37;;;12.10;99.90;;;;;;4914195;29;20210;-79
2023/10/29 05:22:37;;;;;;;10.30;9.60;;;12.00;99.90;;;;;;4914490;29;20209;-78
2023/10/29 05:25:07;;;;;;;10.47;9.77;;;11.70;99.90;;;;;;4914724;29;20225;-79
2023/10/29 05:27:34;;;;;;;10.47;9.87;;;11.40;99.90;;;;;;4911818;29;20293;-78
2023/10/29 05:30:00;;;;;;;10.70;10.00;;;11.20;99.90;;;;;;4910043;29;20303;-78
2023/10/29 05:32:28;;;;;;;10.17;9.57;;;11.00;99.90;;;;;;4922385;29;20212;-79
2023/10/29 05:34:55;;;;;;;10.73;9.90;;;10.80;99.90;;;;;;4915386;29;20246;-78
2023/10/29 05:37:22;;;;;;;10.20;9.50;;;10.70;99.90;;;;;;4914990;29;20205;-78
2023/10/29 05:39:49;;;;;;;10.50;9.80;;;10.60;99.90;;;;;;4927217;29;20204;-78
2023/10/29 05:42:16;;;;;;;10.13;9.43;;;10.60;99.90;;;;;;4927660;29;20208;-79
2023/10/29 05:44:43;;;;;;;10.57;9.70;;;10.50;99.90;;;;;;4916545;29;20217;-78
2023/10/29 05:47:09;;;;;;;10.10;9.27;;;10.50;99.90;;;;;;4914524;29;20209;-78
2023/10/29 05:49:37;;;;;;;10.13;9.43;;;10.50;99.90;;;;;;4917231;29;20205;-79
2023/10/29 05:52:05;;;;;;;12.00;11.00;;;10.50;99.90;;;;;;4913127;29;20209;-79
2023/10/29 05:54:32;;;;;;;10.33;9.63;;;10.50;99.90;;;;;;4913467;29;20220;-78
2023/10/29 05:56:59;;;;;;;10.37;9.67;;;10.50;99.90;;;;;;4916548;29;20644;-78
2023/10/29 05:59:28;;;;;;;10.17;9.57;;;10.50;99.90;;;;;;4915750;29;20227;-78
2023/10/29 06:01:54;;;;;;;11.20;10.50;;;10.50;99.90;;;;;;4917660;29;20472;-78
2023/10/29 06:04:21;;;;;;;10.73;10.03;;;10.50;99.90;;;;;;4915742;29;20233;-78
2023/10/29 06:06:49;;;;;;;10.47;9.67;;;10.40;99.90;;;;;;4918335;29;20224;-78
2023/10/29 06:09:16;;;;;;;10.90;10.20;;;10.40;99.90;;;;;;4916037;29;20692;-79
2023/10/29 06:11:43;;;;;;;10.50;9.80;;;10.50;99.90;;;;;;4923146;29;20608;-77
2023/10/29 06:14:10;;;;;;;10.70;10.00;;;10.40;99.90;;;;;;4916526;29;20247;-79
2023/10/29 06:16:37;;;;;;;10.47;9.77;;;10.50;99.90;;;;;;4920456;29;20211;-79
2023/10/29 06:19:09;;;;;;;10.50;9.80;;;10.50;99.90;;;;;;4916003;29;20238;-83
2023/10/29 06:21:41;;;;;;;11.00;10.20;;;10.50;99.90;;;;;;4922785;29;20318;-81
2023/10/29 06:24:48;;;;;;;10.17;9.57;;;10.60;99.90;;;;;;4923558;29;20224;-81
2023/10/29 06:28:35;;;;;;;;;;;;;;;;;;;;;
2023/10/29 06:31:33;;;;;;;11.37;10.57;;;10.70;99.90;;;;;;4785740;29;20242;-80
2023/10/29 06:34:16;;;;;;;12.03;11.33;;;10.70;99.90;;;;;;4811180;29;20424;-81
2023/10/29 06:36:43;;;;;;;11.80;11.10;;;10.60;99.90;;;;;;4817963;29;20242;-80
2023/10/29 06:39:12;;;;;;;12.17;11.43;;;10.60;99.90;;;;;;4874405;29;20284;-81
2023/10/29 06:41:45;;;;;;;11.00;10.30;;;10.60;99.90;;;;;;4913912;29;20203;-80
2023/10/29 06:44:12;;;;;;;11.33;10.57;;;10.60;99.90;;;;;;4908637;29;20228;-77
2023/10/29 06:46:40;;;;;;;10.57;9.97;;;10.70;99.90;;;;;;4914381;29;20204;-77
2023/10/29 06:49:07;;;;;;;10.27;9.67;;;10.70;99.90;;;;;;4915147;29;20219;-77
2023/10/29 06:51:34;;;;;;;10.63;9.93;;;10.80;99.90;;;;;;4916724;29;20685;-77
2023/10/29 06:54:00;;;;;;;11.03;10.33;;;10.80;99.90;;;;;;4913101;29;20299;-82
2023/10/29 06:56:27;;;;;;;10.90;10.20;;;10.80;99.90;;;;;;4910477;29;20207;-77
2023/10/29 06:58:54;;;;;;;10.60;10.00;;;10.90;99.90;;;;;;4917784;29;20197;-77
2023/10/29 07:01:21;;;;;;;10.50;9.87;;;10.90;99.90;;;;;;4924879;29;20673;-83
2023/10/29 07:17:36;;;;;;;9.93;9.33;;;11.20;99.90;;;;;;4925285;23;20743;-82
2023/10/29 07:43:27;;;;;;;11.83;10.97;;;11.70;99.90;;;;;;4718966;30;20244;-82
2023/10/29 07:45:54;;;;;;;10.17;9.47;;;11.70;99.90;;;;;;4784926;29;20865;-82
2023/10/29 07:48:21;;;;;;;8.40;7.80;;;11.70;99.90;;;;;;4850689;29;20231;-81
2023/10/29 07:50:51;;;;;;;9.00;8.30;;;11.70;99.90;;;;;;4877682;29;20237;-81
2023/10/29 07:53:44;;;;;;;;;;;;;;;;;;;;;
2023/10/29 07:56:54;;;;;;;;;;;;;;;;;;;;;
2023/10/29 08:00:37;;;;;;;7.30;6.80;;;11.80;99.90;;;;;;4783067;30;20214;-82
2023/10/29 08:07:20;;;;;;;11.40;10.60;;;11.90;99.90;;;;;;4711628;30;20305;-81
2023/10/29 08:13:50;;;;;;;6.00;5.50;;;12.10;99.90;;;;;;4738125;29;20264;-77
2023/10/29 08:16:18;;;;;;;13.40;12.57;;;12.10;99.90;;;;;;4770001;29;20215;-77
2023/10/29 08:18:45;;;;;;;10.47;9.83;;;12.10;99.90;;;;;;4865771;29;20225;-77
2023/10/29 08:21:12;;;;;;;11.00;10.30;;;12.20;99.90;;;;;;4880508;29;20587;-77
2023/10/29 08:23:40;;;;;;;7.30;6.70;;;12.20;99.90;;;;;;4880485;29;20347;-76
2023/10/29 08:26:07;;;;;;;6.43;5.50;;;12.30;99.90;;;;;;4881012;29;20238;-77
2023/10/29 08:28:36;;;;;;;8.00;7.50;;;12.40;99.90;;;;;;4874624;29;20236;-77
2023/10/29 08:31:02;;;;;;;7.43;6.93;;;12.50;99.90;;;;;;4890045;29;20208;-77
2023/10/29 08:33:30;;;;;;;7.07;6.50;;;12.50;99.90;;;;;;4876180;29;20233;-77
2023/10/29 08:35:56;;;;;;;5.70;5.20;;;12.60;99.90;;;;;;4881284;29;20232;-77
2023/10/29 08:38:23;;;;;;;10.17;9.47;;;12.60;99.90;;;;;;4872586;29;20256;-77
2023/10/29 08:40:52;;;;;;;9.37;8.77;;;12.60;99.90;;;;;;4877335;29;20641;-76
2023/10/29 08:43:18;;;;;;;5.00;4.60;;;12.80;99.90;;;;;;4876992;29;20289;-77
2023/10/29 08:45:45;;;;;;;4.20;3.80;;;13.00;99.90;;;;;;4879263;29;20749;-78
2023/10/29 08:48:12;;;;;;;9.30;8.70;;;13.20;99.90;;;;;;4899514;29;20265;-78
2023/10/29 08:50:40;;;;;;;4.40;3.90;;;13.30;99.90;;;;;;4877558;29;20196;-77
2023/10/29 08:53:06;;;;;;;6.53;6.03;;;13.50;99.90;;;;;;4863615;29;20715;-77
2023/10/29 08:55:35;;;;;;;4.33;3.93;;;13.60;99.90;;;;;;4881342;29;20201;-78
2023/10/29 08:58:03;;;;;;;8.30;7.70;;;13.70;99.90;;;;;;4893781;29;20213;-77
2023/10/29 09:00:31;;;;;;;9.57;8.90;;;13.70;99.90;;;;;;4878621;29;20452;-80
2023/10/29 09:03:01;;;;;;;6.23;5.83;;;13.70;99.90;;;;;;4870485;29;20716;-78
2023/10/29 09:05:28;;;;;;;9.63;8.83;;;13.70;99.90;;;;;;4875204;29;20237;-77
2023/10/29 09:07:55;;;;;;;9.77;9.07;;;13.60;99.90;;;;;;4880808;29;20216;-77
2023/10/29 09:10:22;;;;;;;9.17;8.57;;;13.70;99.90;;;;;;4880744;29;20663;-77
2023/10/29 09:12:48;;;;;;;11.43;10.73;;;13.70;99.90;;;;;;4884057;29;20236;-78
2023/10/29 09:15:16;;;;;;;10.43;9.73;;;13.80;99.90;;;;;;4876969;29;20197;-78
2023/10/29 09:17:43;;;;;;;8.47;7.90;;;13.90;99.90;;;;;;4878509;29;20711;-78
2023/10/29 09:20:12;;;;;;;11.03;10.40;;;13.90;99.90;;;;;;4870690;29;20194;-77
2023/10/29 09:22:39;;;;;;;10.17;9.53;;;14.10;99.90;;;;;;4874940;29;20194;-77
2023/10/29 09:25:06;;;;;;;10.17;9.47;;;14.10;99.90;;;;;;4881655;29;20778;-77
2023/10/29 09:27:33;;;;;;;10.63;9.90;;;14.20;99.90;;;;;;4868094;29;20215;-79
2023/10/29 09:30:00;;;;;;;9.67;9.07;;;14.30;99.90;;;;;;4876560;29;20210;-78
2023/10/29 09:32:28;;;;;;;6.70;6.23;;;14.50;99.90;;;;;;4872451;29;20203;-77
2023/10/29 09:34:55;;;;;;;5.40;4.97;;;14.50;99.90;;;;;;4875826;29;20203;-78
2023/10/29 09:37:22;;;;;;;6.37;5.87;;;14.60;99.90;;;;;;4871832;29;20293;-77
2023/10/29 09:39:49;;;;;;;4.50;4.20;;;14.80;99.90;;;;;;4881296;29;20785;-77
2023/10/29 09:42:18;;;;;;;4.43;4.03;;;14.90;99.90;;;;;;4876665;29;20211;-77
2023/10/29 09:44:47;;;;;;;3.53;3.23;;;15.10;99.90;;;;;;4878194;29;20239;-77
2023/10/29 09:47:17;;;;;;;4.60;4.30;;;15.30;99.90;;;;;;4877862;29;20716;-77
2023/10/29 09:49:45;;;;;;;4.40;4.00;;;15.30;99.90;;;;;;4881305;29;20206;-78
2023/10/29 09:52:14;;;;;;;4.30;4.00;;;15.30;99.90;;;;;;4876216;29;20221;-77
2023/10/29 09:55:07;;;;;;;4.73;3.67;;;15.30;99.90;;;;;;4877482;29;20293;-82
2023/10/29 09:57:34;;;;;;;4.20;3.80;;;15.20;99.90;;;;;;4880006;29;20235;-78
2023/10/29 10:00:02;;;;;;;4.63;4.13;;;15.20;99.90;;;;;;4882480;29;20618;-78
2023/10/29 10:02:50;;;;;;;4.33;4.03;;;15.20;99.90;;;;;;4870939;29;20214;-78
2023/10/29 10:05:34;;;;;;;4.37;4.00;;;15.20;99.90;;;;;;4877387;29;20201;-82
2023/10/29 10:08:36;;;;;;;;;;;;;;;;;;;;;
2023/10/29 10:11:22;;;;;;;6.50;4.80;;;15.30;99.90;;;;;;4869819;29;20758;-79
2023/10/29 10:13:48;;;;;;;5.10;4.67;;;15.40;99.90;;;;;;4875374;29;20239;-79
2023/10/29 10:16:17;;;;;;;4.30;3.90;;;15.60;99.90;;;;;;4876017;29;20674;-81
2023/10/29 10:18:51;;;;;;;3.80;3.47;;;15.80;99.90;;;;;;4892404;29;20198;-80
2023/10/29 10:21:21;;;;;;;3.57;3.17;;;15.90;99.90;;;;;;4880462;29;20200;-79
2023/10/29 10:23:49;;;;;;;3.10;2.80;;;16.10;99.90;;;;;;4866850;29;20310;-79
2023/10/29 10:26:18;;;;;;;2.90;2.70;;;16.30;99.90;;;;;;4875904;29;20232;-79
2023/10/29 10:28:55;;;;;;;3.60;3.30;;;16.50;99.90;;;;;;4879564;29;20201;-79
2023/10/29 10:31:22;;;;;;;3.23;2.93;;;16.70;99.90;;;;;;4872185;29;20232;-79
2023/10/29 10:33:50;;;;;;;3.00;2.70;;;16.80;99.90;;;;;;4874924;29;20221;-80
2023/10/29 10:36:32;;;;;;;3.70;3.40;;;16.90;99.90;;;;;;4878953;29;20214;-79
2023/10/29 10:38:59;;;;;;;3.60;3.23;;;17.10;99.90;;;;;;4878970;29;20229;-79
2023/10/29 10:41:38;;;;;;;5.23;4.73;;;17.30;99.90;;;;;;4882049;29;20220;-79
2023/10/29 10:44:08;;;;;;;9.20;8.40;;;17.30;99.90;;;;;;4880960;29;20588;-79
2023/10/29 10:46:36;;;;;;;8.77;8.07;;;17.40;99.90;;;;;;4874684;29;20237;-80
2023/10/29 10:49:07;;;;;;;10.77;9.97;;;17.40;99.90;;;;;;4877364;29;20202;-79
2023/10/29 10:51:36;;;;;;;7.33;6.73;;;17.50;99.90;;;;;;4875006;29;20278;-80
2023/10/29 10:54:04;;;;;;;5.00;4.00;;;17.60;99.90;;;;;;4881909;29;20228;-80
2023/10/29 10:56:35;;;;;;;4.73;4.00;;;17.70;99.90;;;;;;4877372;29;20203;-79
2023/10/29 10:59:03;;;;;;;11.87;11.07;;;17.80;99.90;;;;;;4881518;29;20241;-78
2023/10/29 11:01:31;;;;;;;9.90;9.20;;;17.90;99.90;;;;;;4878927;29;20262;-79
2023/10/29 11:03:59;;;;;;;11.03;10.33;;;18.10;99.90;;;;;;4879934;29;20260;-79
2023/10/29 11:06:26;;;;;;;3.50;3.20;;;18.40;99.90;;;;;;4868029;29;20229;-78
2023/10/29 11:08:55;;;;;;;8.30;7.60;;;18.60;99.90;;;;;;4877302;29;20211;-79
2023/10/29 11:11:26;;;;;;;9.40;8.80;;;18.90;99.90;;;;;;4885117;29;20195;-79
2023/10/29 11:14:08;;;;;;;8.47;7.87;;;19.00;99.90;;;;;;4876067;29;20217;-79
2023/10/29 11:16:46;;;;;;;4.87;4.13;;;18.90;99.90;;;;;;4883573;29;20245;-77
2023/10/29 11:19:44;;;;;;;6.93;6.43;;;18.90;99.90;;;;;;4883829;29;20226;-81
2023/10/29 11:22:14;;;;;;;10.10;9.40;;;18.90;99.90;;;;;;4865893;29;20204;-78
2023/10/29 11:24:42;;;;;;;9.33;8.63;;;18.90;99.90;;;;;;4867804;29;20223;-78
2023/10/29 11:27:35;;;;;;;3.13;2.87;;;18.90;99.90;;;;;;4863989;29;20221;-78
2023/10/29 11:30:12;;;;;;;3.67;2.63;;;18.90;99.90;;;;;;4867413;29;20205;-78
2023/10/29 11:32:39;;;;;;;2.53;2.40;;;18.80;99.90;;;;;;4881033;29;20319;-78
2023/10/29 11:35:20;;;;;;;2.87;2.40;;;18.80;99.90;;;;;;4873836;29;20248;-78
2023/10/29 11:37:48;;;;;;;2.20;2.10;;;18.70;99.90;;;;;;4867348;29;20216;-78
2023/10/29 11:40:37;;;;;;;2.80;2.60;;;18.70;99.90;;;;;;4885687;29;20306;-78
2023/10/29 11:43:17;;;;;;;8.50;8.00;;;18.80;99.90;;;;;;4870034;29;20596;-78
2023/10/29 11:45:53;;;;;;;8.60;8.10;;;18.80;99.90;;;;;;4882557;29;20240;-80
2023/10/29 11:48:20;;;;;;;8.87;8.37;;;19.00;99.90;;;;;;4871073;29;20303;-79
2023/10/29 11:51:18;;;;;;;3.40;3.20;;;19.20;99.90;;;;;;4873726;29;20208;-79
2023/10/29 11:53:46;;;;;;;3.53;2.60;;;19.30;99.90;;;;;;4880346;29;20250;-79
2023/10/29 11:56:16;;;;;;;3.13;2.80;;;19.30;99.90;;;;;;4881071;29;20202;-79
2023/10/29 11:58:43;;;;;;;9.03;8.23;;;19.40;99.90;;;;;;4873114;29;20236;-80
2023/10/29 12:01:10;;;;;;;5.73;5.00;;;19.50;99.90;;;;;;4867330;29;20582;-79
2023/10/29 12:03:38;;;;;;;9.93;8.93;;;19.50;99.90;;;;;;4871933;29;20280;-78
2023/10/29 12:06:05;;;;;;;14.20;12.83;;;19.60;99.90;;;;;;4866141;29;20228;-79
2023/10/29 12:08:32;;;;;;;9.90;9.10;;;19.50;99.90;;;;;;4881011;29;20235;-79
2023/10/29 12:11:00;;;;;;;10.57;9.77;;;19.50;99.90;;;;;;4870386;29;20202;-79
2023/10/29 12:13:44;;;;;;;8.30;7.70;;;19.60;99.90;;;;;;4871108;29;20715;-79
2023/10/29 12:16:12;;;;;;;6.70;6.20;;;19.70;99.90;;;;;;4871660;29;20218;-78
2023/10/29 12:18:40;;;;;;;8.27;7.57;;;19.70;99.90;;;;;;4873161;29;20284;-78
2023/10/29 12:21:08;;;;;;;7.13;6.73;;;19.60;99.90;;;;;;4867971;29;20217;-79
2023/10/29 12:23:36;;;;;;;8.13;7.63;;;19.50;99.90;;;;;;4874259;29;21039;-81
2023/10/29 12:26:09;;;;;;;7.23;6.83;;;19.50;99.90;;;;;;4889930;29;20229;-80
2023/10/29 12:28:37;;;;;;;7.97;7.50;;;19.50;99.90;;;;;;4875369;29;20583;-84
2023/10/29 12:31:06;;;;;;;2.40;2.27;;;19.50;99.90;;;;;;4865592;29;20224;-83
2023/10/29 12:33:34;;;;;;;2.57;2.37;;;19.60;99.90;;;;;;4876196;29;20228;-82
2023/10/29 12:36:08;;;;;;;3.87;3.60;;;19.60;99.90;;;;;;4862314;29;20689;-80
2023/10/29 12:41:37;;;;;;;2.63;2.50;;;19.60;99.90;;;;;;4877868;29;20232;-80
2023/10/29 12:44:24;;;;;;;2.57;2.37;;;19.70;99.90;;;;;;4867525;29;20232;-80
2023/10/29 12:47:03;;;;;;;6.73;6.33;;;19.70;99.90;;;;;;4878774;29;20232;-81
2023/10/29 12:49:33;;;;;;;8.00;7.50;;;19.70;99.90;;;;;;4879801;29;20208;-80
2023/10/29 12:52:12;;;;;;;7.43;6.97;;;19.60;99.90;;;;;;4877424;29;20274;-81
2023/10/29 12:57:27;;;;;;;4.00;3.70;;;19.50;99.90;;;;;;4869509;29;20257;-80
2023/10/29 13:04:00;;;;;;;4.23;3.93;;;19.50;99.90;;;;;;4850490;29;20243;-82
2023/10/29 13:06:28;;;;;;;8.33;7.83;;;19.50;99.90;;;;;;4845229;29;20227;-82
2023/10/29 13:08:55;;;;;;;8.50;7.93;;;19.50;99.90;;;;;;4861435;29;20633;-82
2023/10/29 13:11:22;;;;;;;2.20;2.10;;;19.50;99.90;;;;;;4861943;29;20220;-82
2023/10/29 13:13:50;;;;;;;2.30;2.20;;;19.60;99.90;;;;;;4855405;29;20749;-81
2023/10/29 13:16:17;;;;;;;2.10;2.00;;;19.80;99.90;;;;;;4861564;29;20653;-83
2023/10/29 13:18:45;;;;;;;2.40;2.20;;;19.90;99.90;;;;;;4858620;29;20615;-83
2023/10/29 13:21:11;;;;;;;2.17;2.07;;;20.00;99.90;;;;;;4862363;29;20555;-84
2023/10/29 13:23:40;;;;;;;2.97;2.87;;;20.00;99.90;;;;;;4858390;29;20232;-83
2023/10/29 13:26:06;;;;;;;3.33;3.03;;;20.00;99.90;;;;;;4863217;29;20209;-84
2023/10/29 13:28:34;;;;;;;6.43;6.03;;;19.90;99.90;;;;;;4867315;29;20201;-83
2023/10/29 13:31:01;;;;;;;2.40;2.20;;;19.80;99.90;;;;;;4868862;29;20862;-84
2023/10/29 13:33:28;;;;;;;2.40;2.20;;;19.70;99.90;;;;;;4858939;29;20319;-84
2023/10/29 13:35:55;;;;;;;2.93;2.77;;;19.70;99.90;;;;;;4865796;29;20205;-84
2023/10/29 13:38:24;;;;;;;3.90;3.60;;;19.70;99.90;;;;;;4859960;29;20225;-84
2023/10/29 13:40:52;;;;;;;3.03;2.70;;;19.70;99.90;;;;;;4856090;29;20212;-84
2023/10/29 13:43:19;;;;;;;5.20;4.80;;;19.70;99.90;;;;;;4860919;29;20714;-81
2023/10/29 13:45:57;;;;;;;3.47;3.27;;;19.70;99.90;;;;;;4859211;29;20285;-84
2023/10/29 13:48:24;;;;;;;4.47;4.17;;;19.60;99.90;;;;;;4851296;29;20239;-83
2023/10/29 13:50:51;;;;;;;8.63;8.07;;;19.50;99.90;;;;;;4852196;29;20710;-82
2023/10/29 13:53:18;;;;;;;6.43;6.03;;;19.40;99.90;;;;;;4849094;29;20774;-82
2023/10/29 13:55:45;;;;;;;8.07;7.57;;;19.30;99.90;;;;;;4844435;29;20220;-83